Time;durP1;ratioP1;P1;durP2;ratioP2;P2;SDS_P1;SDS_P2;PMS_P1;PMS_P2;Temp;Humidity;BMP_temperature;BMP_pressure;BME280_temperature;BME280_humidity;BME280_pressure;Samples;Min_cycle;Max_cycle;Signal;HPM_P1;HPM_P2
2022/01/28 00:00:30;;;;;;;0.20;0.20;;;;;;;20.11;40.01;102398.34;5153990;27;20042;-31
2022/01/28 00:02:57;;;;;;;0.20;0.20;;;;;;;20.12;40.08;102401.94;5132990;27;20489;-32
2022/01/28 00:05:23;;;;;;;0.30;0.30;;;;;;;20.11;39.77;102405.78;5147457;27;20049;-31
2022/01/28 00:07:50;;;;;;;0.20;0.20;;;;;;;20.12;40.01;102413.88;5148148;27;20122;-32
2022/01/28 00:10:16;;;;;;;0.20;0.20;;;;;;;20.11;39.73;102414.09;5150330;27;20047;-31
2022/01/28 00:15:34;;;;;;;0.20;0.20;;;;;;;20.12;40.17;102438.75;5130963;27;20047;-31
2022/01/28 00:18:29;;;;;;;0.20;0.20;;;;;;;20.12;39.87;102443.41;5143288;27;20465;-31
2022/01/28 00:36:26;;;;;;;0.20;0.20;;;;;;;20.12;39.84;102447.06;5111011;27;20074;-31
2022/01/28 00:37:37;;;;;;;0.20;0.20;;;;;;;20.12;39.80;102484.91;5117318;27;20167;-31
2022/01/28 00:40:03;;;;;;;0.20;0.20;;;;;;;20.13;40.18;102503.22;5131997;27;20043;-32
2022/01/28 00:42:29;;;;;;;0.30;0.30;;;;;;;20.12;39.80;102499.59;5128867;27;20081;-31
2022/01/28 00:44:57;;;;;;;0.20;0.20;;;;;;;20.13;39.70;102503.22;5119898;28;20047;-32
2022/01/28 00:47:22;;;;;;;0.20;0.20;;;;;;;20.14;39.90;102504.88;5118280;28;20051;-31
2022/01/28 00:49:48;;;;;;;0.20;0.20;;;;;;;20.14;39.73;102510.41;5109999;28;20051;-32
2022/01/28 00:52:14;;;;;;;0.20;0.20;;;;;;;20.14;39.96;102519.53;5109996;28;20042;-31
2022/01/28 00:54:39;;;;;;;0.30;0.30;;;;;;;20.14;40.14;102525.06;5123300;28;20059;-31
2022/01/28 00:57:05;;;;;;;0.20;0.20;;;;;;;20.13;40.01;102517.88;5123066;28;20359;-31
2022/01/28 00:59:31;;;;;;;0.22;0.22;;;;;;;20.14;39.88;102530.59;5109848;28;20039;-31
2022/01/28 01:01:56;;;;;;;0.20;0.20;;;;;;;20.14;39.95;102530.59;5120097;28;20085;-32
2022/01/28 01:04:24;;;;;;;0.30;0.30;;;;;;;20.15;39.96;102534.22;5111105;28;20104;-32
2022/01/28 01:06:49;;;;;;;0.20;0.20;;;;;;;20.15;39.75;102532.28;5112459;28;20048;-31
2022/01/28 01:09:15;;;;;;;0.20;0.20;;;;;;;20.14;39.79;102527.00;5111520;28;20439;-32
2022/01/28 01:11:41;;;;;;;0.25;0.25;;;;;;;20.15;40.16;102548.03;5116384;28;20058;-31
2022/01/28 01:14:07;;;;;;;0.28;0.28;;;;;;;20.15;40.10;102550.81;5116801;28;20055;-32
2022/01/28 01:16:44;;;;;;;0.20;0.20;;;;;;;20.15;39.99;102554.41;5113929;28;20044;-31
2022/01/28 01:21:54;;;;;;;0.20;0.20;;;;;;;20.14;39.92;102555.50;5156123;27;20202;-31
2022/01/28 01:24:23;;;;;;;0.20;0.20;;;;;;;20.15;39.64;102557.16;5155782;27;20282;-31
2022/01/28 01:26:48;;;;;;;;;;;;;;;20.15;39.83;102557.16;5164524;27;20050;-32
2022/01/28 01:29:17;;;;;;;0.20;0.20;;;;;;;20.15;39.97;102557.16;5160096;27;19919;-32
2022/01/28 01:31:43;;;;;;;0.20;0.20;;;;;;;20.15;40.14;102565.47;5144895;27;20108;-31
2022/01/28 01:34:16;;;;;;;0.20;0.20;;;;;;;20.16;39.97;102569.91;5155514;27;20128;-33
2022/01/28 01:36:43;;;;;;;0.20;0.20;;;;;;;20.16;39.78;102564.38;5143880;27;20035;-31
2022/01/28 01:39:10;;;;;;;0.20;0.20;;;;;;;20.17;39.87;102563.31;5162253;27;20098;-31
2022/01/28 01:41:44;;;;;;;0.20;0.20;;;;;;;20.17;39.90;102562.47;5155662;27;20058;-33
2022/01/28 01:52:28;;;;;;;0.20;0.20;;;;;;;20.16;40.06;102563.53;5124915;27;20074;-33
2022/01/28 01:54:53;;;;;;;0.20;0.20;;;;;;;20.17;40.01;102568.84;5157934;27;20045;-32
2022/01/28 01:57:20;;;;;;;0.20;0.20;;;;;;;20.18;39.81;102569.69;5160409;27;20039;-32
2022/01/28 01:59:47;;;;;;;0.20;0.20;;;;;;;20.18;39.96;102575.22;5158786;27;20107;-31
2022/01/28 02:02:14;;;;;;;0.20;0.20;;;;;;;20.19;39.99;102571.34;5159174;27;20074;-31
2022/01/28 02:04:40;;;;;;;0.20;0.20;;;;;;;20.18;39.80;102566.91;5141930;27;20122;-31
2022/01/28 02:07:06;;;;;;;0.20;0.20;;;;;;;20.18;39.83;102564.16;5144455;27;20046;-32
2022/01/28 02:09:32;;;;;;;0.20;0.20;;;;;;;20.18;40.22;102566.91;5161108;27;20039;-31
2022/01/28 02:11:58;;;;;;;0.20;0.20;;;;;;;20.18;39.94;102576.06;5159240;27;20453;-32
2022/01/28 02:14:24;;;;;;;0.20;0.20;;;;;;;20.19;40.12;102582.41;5163627;27;20750;-32
2022/01/28 02:16:50;;;;;;;0.20;0.20;;;;;;;20.18;39.80;102581.59;5164112;27;20039;-31
2022/01/28 02:19:16;;;;;;;0.20;0.20;;;;;;;20.17;40.19;102579.91;5131172;27;20061;-31
2022/01/28 02:21:47;;;;;;;0.20;0.20;;;;;;;20.18;40.12;102589.03;5144016;27;20057;-32
2022/01/28 02:24:15;;;;;;;0.20;0.20;;;;;;;20.18;40.10;102598.19;5149606;27;20035;-32
2022/01/28 02:26:41;;;;;;;0.20;0.20;;;;;;;20.19;39.77;102601.78;5151892;27;20141;-33
2022/01/28 02:29:12;;;;;;;0.20;0.20;;;;;;;20.19;39.83;102608.16;5133340;27;20038;-31
2022/01/28 02:31:38;;;;;;;0.20;0.20;;;;;;;20.19;39.99;102607.31;5141798;27;20100;-31
2022/01/28 02:34:06;;;;;;;0.30;0.30;;;;;;;20.19;39.92;102623.91;5137277;27;20476;-31
2022/01/28 02:36:32;;;;;;;0.20;0.20;;;;;;;20.20;40.00;102633.88;5135364;27;20077;-32
2022/01/28 02:38:59;;;;;;;0.20;0.20;;;;;;;20.19;39.94;102627.50;5135060;27;20067;-32
2022/01/28 02:41:29;;;;;;;0.20;0.20;;;;;;;20.19;39.77;102627.50;5135240;27;20043;-32
2022/01/28 02:46:52;;;;;;;0.28;0.28;;;;;;;20.19;39.89;102626.69;5123879;27;20134;-32
2022/01/28 02:49:18;;;;;;;0.20;0.20;;;;;;;20.21;40.03;102632.81;5132219;27;20070;-32
2022/01/28 02:51:44;;;;;;;0.20;0.20;;;;;;;20.21;39.86;102633.66;5128069;27;20481;-31
2022/01/28 02:54:16;;;;;;;0.20;0.20;;;;;;;20.21;39.98;102627.28;5132533;27;20047;-32
2022/01/28 02:56:51;;;;;;;0.20;0.20;;;;;;;20.21;40.01;102635.59;5136647;27;20043;-31
2022/01/28 02:59:17;;;;;;;0.30;0.30;;;;;;;20.19;40.13;102633.03;5136757;27;20047;-31
2022/01/28 03:01:43;;;;;;;0.20;0.20;;;;;;;20.20;40.05;102625.59;5136949;27;20043;-33
2022/01/28 03:04:13;;;;;;;0.20;0.20;;;;;;;20.21;40.17;102635.59;5114560;28;20534;-31
2022/01/28 03:06:39;;;;;;;0.20;0.20;;;;;;;20.20;40.04;102633.88;5114348;27;20448;-32
2022/01/28 03:09:16;;;;;;;0.20;0.20;;;;;;;20.20;40.05;102639.41;5136101;27;20485;-31
2022/01/28 03:14:34;;;;;;;0.20;0.20;;;;;;;20.20;39.85;102650.47;5165905;27;20206;-31
2022/01/28 03:17:09;;;;;;;0.20;0.20;;;;;;;20.21;39.95;102654.94;5161124;27;20051;-33
2022/01/28 03:19:54;;;;;;;0.20;0.20;;;;;;;20.20;39.76;102653.25;5145195;27;20504;-32
2022/01/28 03:22:20;;;;;;;0.20;0.20;;;;;;;20.20;39.86;102650.47;5155668;27;20042;-33
2022/01/28 03:24:50;;;;;;;0.20;0.20;;;;;;;20.20;39.80;102664.31;5166115;27;20035;-32
2022/01/28 03:27:30;;;;;;;0.20;0.20;;;;;;;20.20;39.86;102665.16;5164370;27;20066;-32
2022/01/28 03:29:56;;;;;;;0.20;0.20;;;;;;;20.21;39.84;102669.63;5148237;27;20085;-32
2022/01/28 03:32:21;;;;;;;0.20;0.20;;;;;;;20.22;39.79;102673.22;5162984;27;20038;-32
2022/01/28 03:34:47;;;;;;;0.20;0.20;;;;;;;20.20;39.78;102670.69;5163807;27;20099;-33
2022/01/28 03:37:14;;;;;;;0.20;0.20;;;;;;;20.23;39.96;102670.19;5167012;27;20072;-32
2022/01/28 03:39:39;;;;;;;0.20;0.20;;;;;;;20.22;40.04;102679.59;5145393;27;20047;-32
2022/01/28 03:42:05;;;;;;;0.20;0.20;;;;;;;20.21;39.90;102674.31;5165238;27;20035;-33
2022/01/28 03:44:31;;;;;;;0.20;0.20;;;;;;;20.21;39.91;102688.16;5164461;27;20038;-32
2022/01/28 03:46:57;;;;;;;0.20;0.20;;;;;;;20.23;39.80;102694.25;5164306;27;20429;-32
2022/01/28 03:49:22;;;;;;;0.20;0.20;;;;;;;20.22;40.10;102692.59;5163164;27;20046;-33
2022/01/28 03:51:48;;;;;;;0.20;0.20;;;;;;;20.22;39.97;102690.66;5164045;27;20049;-33
2022/01/28 03:54:14;;;;;;;0.20;0.20;;;;;;;20.20;39.84;102698.34;5162506;27;20042;-32
2022/01/28 03:56:39;;;;;;;0.22;0.22;;;;;;;20.22;39.77;102700.88;5163617;27;20490;-33
2022/01/28 03:59:05;;;;;;;0.20;0.20;;;;;;;20.21;39.76;102697.28;5165129;27;20038;-32
2022/01/28 04:01:35;;;;;;;0.22;0.22;;;;;;;20.21;39.77;102697.28;5164104;27;20121;-32
2022/01/28 04:12:20;;;;;;;0.20;0.20;;;;;;;20.21;40.09;102737.94;5144532;27;20540;-32
2022/01/28 04:15:03;;;;;;;0.20;0.20;;;;;;;20.22;39.87;102728.56;5166534;27;20096;-31
2022/01/28 04:17:29;;;;;;;0.20;0.20;;;;;;;20.21;39.86;102736.00;5159345;27;20039;-33
2022/01/28 04:19:55;;;;;;;0.20;0.20;;;;;;;20.23;39.88;102736.59;5143670;27;20043;-32
2022/01/28 04:22:21;;;;;;;0.20;0.20;;;;;;;20.22;40.13;102737.69;5137042;27;20047;-31
2022/01/28 04:24:47;;;;;;;0.20;0.20;;;;;;;20.23;39.71;102735.75;5133702;27;20392;-31
2022/01/28 04:27:12;;;;;;;0.20;0.20;;;;;;;20.22;39.90;102746.00;5126105;28;20047;-32
2022/01/28 04:29:38;;;;;;;0.30;0.30;;;;;;;20.24;39.98;102741.03;5107714;28;20139;-33
2022/01/28 04:32:04;;;;;;;0.30;0.30;;;;;;;20.23;39.93;102739.38;5094932;28;20516;-31
2022/01/28 04:34:30;;;;;;;0.20;0.20;;;;;;;20.25;39.82;102739.97;5112883;28;20039;-32
2022/01/28 04:37:07;;;;;;;0.20;0.20;;;;;;;20.22;40.00;102739.63;5112259;28;20073;-31
2022/01/28 04:50:50;;;;;;;0.20;0.20;;;;;;;20.23;40.06;102750.44;5141167;27;20054;-32
2022/01/28 04:59:00;;;;;;;0.20;0.20;;;;;;;20.22;39.73;102761.75;5135819;27;20107;-32
2022/01/28 05:01:51;;;;;;;0.20;0.20;;;;;;;20.24;40.10;102770.63;5157779;27;20481;-33
2022/01/28 05:04:35;;;;;;;0.25;0.25;;;;;;;20.23;39.73;102771.72;5137037;27;20047;-32
2022/01/28 05:07:32;;;;;;;0.20;0.20;;;;;;;20.24;39.83;102773.41;5145313;27;20088;-32
2022/01/28 05:12:58;;;;;;;0.20;0.20;;;;;;;20.23;39.90;102780.88;5139476;27;20085;-32
2022/01/28 05:15:38;;;;;;;0.30;0.30;;;;;;;20.23;40.00;102775.31;5141839;27;20082;-32
2022/01/28 05:26:37;;;;;;;0.30;0.30;;;;;;;20.24;39.74;102796.38;5137160;27;20072;-33
2022/01/28 05:29:02;;;;;;;0.20;0.20;;;;;;;20.25;39.96;102798.06;5142021;27;20093;-33
2022/01/28 05:31:28;;;;;;;0.20;0.20;;;;;;;20.24;40.26;102801.06;5137204;27;20075;-32
2022/01/28 05:33:59;;;;;;;0.20;0.20;;;;;;;20.23;39.90;102797.47;5153811;27;20054;-32
2022/01/28 05:36:25;;;;;;;0.20;0.20;;;;;;;20.22;40.07;102800.47;5136592;27;20447;-33
2022/01/28 05:38:51;;;;;;;0.30;0.30;;;;;;;20.24;40.10;102803.84;5152185;27;20066;-32
2022/01/28 05:41:17;;;;;;;0.20;0.20;;;;;;;20.24;39.90;102812.13;5157445;27;20591;-32
2022/01/28 05:43:42;;;;;;;0.20;0.20;;;;;;;20.24;39.97;102812.13;5154286;27;20185;-33
2022/01/28 05:46:08;;;;;;;0.20;0.20;;;;;;;20.25;39.82;102822.09;5156840;27;20162;-33
2022/01/28 05:48:34;;;;;;;0.20;0.20;;;;;;;20.25;39.49;102822.97;5147513;27;20428;-33
2022/01/28 05:51:00;;;;;;;0.20;0.20;;;;;;;20.25;39.96;102822.09;5149002;27;20426;-33
2022/01/28 05:53:26;;;;;;;0.20;0.20;;;;;;;20.25;39.90;102824.88;5154798;27;20047;-32
2022/01/28 05:55:51;;;;;;;0.20;0.20;;;;;;;20.25;40.05;102827.63;5137561;27;20209;-32
2022/01/28 05:58:17;;;;;;;0.20;0.20;;;;;;;20.25;39.97;102831.28;5133244;27;20046;-32
2022/01/28 06:00:43;;;;;;;0.20;0.20;;;;;;;20.25;39.92;102833.19;5121631;27;20035;-31
2022/01/28 06:03:10;;;;;;;0.20;0.20;;;;;;;20.24;40.05;102832.34;5134709;27;20038;-31
2022/01/28 06:05:36;;;;;;;0.20;0.20;;;;;;;20.25;39.73;102847.00;5140284;27;20058;-31
2022/01/28 06:08:02;;;;;;;0.30;0.30;;;;;;;20.26;39.90;102854.25;5138035;27;20039;-31
2022/01/28 06:10:27;;;;;;;0.20;0.20;;;;;;;20.26;39.98;102868.91;5125881;27;20092;-31
2022/01/28 06:12:53;;;;;;;0.28;0.28;;;;;;;20.25;39.93;102869.13;5141876;27;20039;-32
2022/01/28 06:15:19;;;;;;;0.20;0.20;;;;;;;20.25;39.72;102866.38;5123974;27;20096;-31
2022/01/28 06:17:45;;;;;;;0.30;0.30;;;;;;;20.25;39.58;102872.78;5117621;27;20051;-32
2022/01/28 06:20:12;;;;;;;0.20;0.20;;;;;;;20.26;39.64;102873.63;5101344;28;21174;-32
2022/01/28 06:22:40;;;;;;;0.20;0.20;;;;;;;20.27;39.71;102884.44;5099172;28;20509;-32
2022/01/28 06:25:07;;;;;;;;;;;;;;;20.26;39.89;102876.38;5124452;28;20051;-32
2022/01/28 06:27:33;;;;;;;0.20;0.20;;;;;;;20.25;39.72;102881.06;5121117;28;19919;-31
2022/01/28 06:29:58;;;;;;;0.20;0.20;;;;;;;20.23;40.15;102886.00;5103797;28;20035;-32
2022/01/28 06:32:24;;;;;;;0.20;0.20;;;;;;;20.26;40.01;102890.22;5105135;28;20052;-32
2022/01/28 06:34:50;;;;;;;0.20;0.20;;;;;;;20.26;39.75;102893.81;5099119;28;20123;-32
2022/01/28 06:37:15;;;;;;;0.20;0.20;;;;;;;20.25;39.96;102888.50;5112299;28;20055;-31
2022/01/28 06:39:41;;;;;;;0.20;0.20;;;;;;;20.26;39.49;102885.53;5109019;28;20052;-32
2022/01/28 06:42:07;;;;;;;0.20;0.20;;;;;;;20.26;39.55;102893.81;5120996;28;20035;-32
2022/01/28 06:44:33;;;;;;;0.20;0.20;;;;;;;20.25;39.67;102894.03;5115869;28;20039;-33
2022/01/28 06:46:59;;;;;;;0.30;0.30;;;;;;;20.26;39.67;102898.50;5110272;28;20038;-34
2022/01/28 06:49:28;;;;;;;0.20;0.20;;;;;;;20.26;39.82;102890.22;5097905;28;20048;-33
2022/01/28 06:51:53;;;;;;;0.30;0.30;;;;;;;20.27;39.42;102902.97;5104384;28;20062;-34
2022/01/28 06:54:19;;;;;;;0.20;0.20;;;;;;;20.27;39.71;102902.97;5107228;28;20040;-33
2022/01/28 06:56:45;;;;;;;0.20;0.20;;;;;;;20.25;39.50;102905.97;5108244;28;20043;-34
2022/01/28 06:59:11;;;;;;;0.20;0.20;;;;;;;20.26;39.55;102912.34;5093635;28;20334;-33
2022/01/28 07:01:37;;;;;;;0.20;0.20;;;;;;;20.26;39.20;102915.97;5083394;28;20469;-33
2022/01/28 07:04:03;;;;;;;0.20;0.20;;;;;;;20.26;39.34;102918.72;5099026;28;20044;-33
2022/01/28 07:06:29;;;;;;;0.20;0.20;;;;;;;20.25;39.46;102914.28;5096509;28;20047;-35
2022/01/28 07:08:54;;;;;;;0.20;0.20;;;;;;;20.26;39.21;102927.03;5094377;28;20487;-34
2022/01/28 07:11:20;;;;;;;0.20;0.20;;;;;;;20.28;39.41;102929.53;5097516;28;20048;-35
2022/01/28 07:13:46;;;;;;;0.20;0.20;;;;;;;20.28;39.40;102933.13;5101371;28;20046;-35
2022/01/28 07:16:11;;;;;;;0.20;0.20;;;;;;;20.29;39.56;102925.69;5103398;28;20430;-35
2022/01/28 07:18:37;;;;;;;0.20;0.20;;;;;;;20.29;39.62;102931.22;5097092;28;20048;-34
2022/01/28 07:21:03;;;;;;;0.20;0.20;;;;;;;20.27;39.69;102922.31;5100982;28;20055;-34
2022/01/28 07:23:29;;;;;;;0.20;0.20;;;;;;;20.28;39.66;102935.06;5100630;28;20048;-34
2022/01/28 07:25:54;;;;;;;0.20;0.20;;;;;;;20.28;39.70;102933.13;5087667;28;20075;-35
2022/01/28 07:28:23;;;;;;;0.20;0.20;;;;;;;20.27;39.62;102936.16;5100925;28;20052;-34
2022/01/28 07:30:48;;;;;;;;;;;;;;;20.28;39.65;102944.22;5104508;28;20043;-35
2022/01/28 07:33:14;;;;;;;0.30;0.30;;;;;;;20.28;39.46;102940.59;5102187;28;19927;-34
2022/01/28 07:35:40;;;;;;;0.22;0.22;;;;;;;20.28;39.40;102944.22;5099789;28;20127;-35
2022/01/28 07:38:06;;;;;;;0.20;0.20;;;;;;;20.28;39.36;102946.13;5104435;28;20059;-34
2022/01/28 07:40:31;;;;;;;0.20;0.20;;;;;;;20.28;39.62;102946.97;5100447;28;20431;-33
2022/01/28 07:42:57;;;;;;;0.20;0.20;;;;;;;20.29;39.67;102947.81;5100406;28;20466;-34
2022/01/28 07:45:24;;;;;;;0.20;0.20;;;;;;;20.29;39.77;102945.03;5089588;28;20478;-33
2022/01/28 07:47:50;;;;;;;0.20;0.20;;;;;;;20.37;39.20;102939.16;5097441;28;20134;-42
2022/01/28 07:50:15;;;;;;;0.20;0.20;;;;;;;20.42;38.73;102947.59;5079238;28;20051;-41
2022/01/28 07:52:41;;;;;;;0.20;0.20;;;;;;;20.43;38.88;102952.06;5084310;28;20055;-41
2022/01/28 07:55:10;;;;;;;0.20;0.20;;;;;;;20.38;39.30;102951.94;5095504;28;20181;-40
2022/01/28 07:57:36;;;;;;;0.20;0.20;;;;;;;20.35;39.15;102946.88;5100394;28;20155;-40
2022/01/28 08:00:03;;;;;;;0.20;0.20;;;;;;;20.35;39.30;102941.34;5099754;28;20470;-40
2022/01/28 08:02:29;;;;;;;0.20;0.20;;;;;;;20.34;39.12;102947.97;5087789;28;20530;-43
2022/01/28 08:04:55;;;;;;;0.20;0.20;;;;;;;20.36;39.47;102945.78;5100716;28;20055;-40
2022/01/28 08:07:22;;;;;;;0.20;0.20;;;;;;;20.36;39.31;102956.00;5077116;28;20054;-41
2022/01/28 08:09:48;;;;;;;0.20;0.20;;;;;;;20.34;39.20;102959.03;5094933;28;20126;-42
2022/01/28 08:12:13;;;;;;;0.20;0.20;;;;;;;20.35;39.22;102952.41;5094806;28;20081;-35
2022/01/28 08:14:39;;;;;;;0.20;0.20;;;;;;;20.36;38.50;102962.38;5102654;28;20048;-41
2022/01/28 08:17:05;;;;;;;0.20;0.20;;;;;;;20.39;38.71;102959.16;5111564;28;20062;-40
2022/01/28 08:19:30;;;;;;;0.20;0.20;;;;;;;20.38;39.07;102968.53;5107364;28;20214;-41
2022/01/28 08:21:56;;;;;;;0.20;0.20;;;;;;;20.39;39.01;102981.28;5105579;28;20044;-41
2022/01/28 08:24:22;;;;;;;0.20;0.20;;;;;;;20.38;38.58;102987.91;5090658;28;20051;-40
2022/01/28 08:26:47;;;;;;;0.20;0.20;;;;;;;20.40;38.59;102993.19;5104827;28;20066;-41
2022/01/28 08:29:13;;;;;;;0.20;0.20;;;;;;;20.42;38.52;102996.56;5104361;28;20077;-39
2022/01/28 08:31:39;;;;;;;0.20;0.20;;;;;;;20.40;38.74;103005.09;5073646;28;20043;-40
2022/01/28 08:34:05;;;;;;;0.20;0.20;;;;;;;20.39;38.64;103014.50;5104879;28;20070;-41
2022/01/28 08:36:30;;;;;;;0.20;0.20;;;;;;;20.38;38.64;103023.03;5090783;28;21525;-40
2022/01/28 08:38:57;;;;;;;0.20;0.20;;;;;;;20.37;38.68;103019.41;5109510;28;20088;-41
2022/01/28 08:41:23;;;;;;;0.20;0.20;;;;;;;20.39;38.41;103016.44;5102164;28;20051;-40
2022/01/28 08:43:49;;;;;;;0.20;0.20;;;;;;;20.39;38.47;103021.97;5071570;28;20075;-41
2022/01/28 08:46:15;;;;;;;0.20;0.20;;;;;;;20.39;38.34;103024.72;5106354;28;20662;-41
2022/01/28 08:48:41;;;;;;;0.20;0.20;;;;;;;20.38;38.83;103023.03;5110465;28;21460;-41
2022/01/28 08:51:06;;;;;;;0.20;0.20;;;;;;;20.38;38.41;103023.03;5095412;28;20550;-39
2022/01/28 08:53:33;;;;;;;0.20;0.20;;;;;;;20.39;38.61;103033.88;5097499;28;20047;-38
2022/01/28 08:55:59;;;;;;;0.20;0.20;;;;;;;20.38;38.46;103025.78;5109318;28;20118;-40
2022/01/28 08:58:24;;;;;;;0.20;0.20;;;;;;;20.37;38.38;103024.94;5106675;28;20452;-41
2022/01/28 09:00:51;;;;;;;0.20;0.20;;;;;;;20.38;38.65;103029.44;5110089;28;20489;-41
2022/01/28 09:03:19;;;;;;;0.20;0.20;;;;;;;20.38;38.45;103026.66;5096335;28;20082;-42
2022/01/28 09:05:45;;;;;;;0.20;0.20;;;;;;;20.38;38.47;103023.88;5111521;27;20100;-40
2022/01/28 09:08:11;;;;;;;0.20;0.20;;;;;;;20.38;38.40;103017.47;5116617;28;20063;-41
2022/01/28 09:10:42;;;;;;;0.20;0.20;;;;;;;20.38;38.30;103017.47;5092854;28;20039;-40
2022/01/28 09:15:39;;;;;;;0.20;0.20;;;;;;;20.38;38.57;103023.88;5110208;28;20423;-41
2022/01/28 09:18:06;;;;;;;0.20;0.20;;;;;;;20.39;38.54;103021.97;5108733;28;20043;-42
2022/01/28 09:20:34;;;;;;;0.20;0.20;;;;;;;20.38;38.75;103023.88;5091654;28;20199;-41
2022/01/28 09:23:00;;;;;;;0.20;0.20;;;;;;;20.39;38.62;103024.72;5093897;28;20115;-38
2022/01/28 09:25:26;;;;;;;0.20;0.20;;;;;;;20.39;38.50;103030.25;5108332;28;20070;-41
2022/01/28 09:27:53;;;;;;;0.20;0.20;;;;;;;20.38;38.58;103028.56;5095329;28;20055;-38
2022/01/28 09:30:19;;;;;;;0.20;0.20;;;;;;;20.38;38.70;103028.56;5099539;28;20061;-41
2022/01/28 09:32:44;;;;;;;0.20;0.20;;;;;;;20.36;38.46;103031.56;5096623;28;20046;-39
2022/01/28 09:35:13;;;;;;;0.20;0.20;;;;;;;20.37;38.71;103040.72;5117323;28;20079;-40
2022/01/28 09:37:39;;;;;;;0.20;0.20;;;;;;;20.36;38.82;103045.41;5075645;28;20102;-41
2022/01/28 09:40:06;;;;;;;0.22;0.22;;;;;;;20.32;38.63;103044.19;5115888;28;20050;-43
2022/01/28 09:42:36;;;;;;;0.20;0.20;;;;;;;20.36;38.36;103039.88;5111960;28;20393;-41
2022/01/28 09:45:04;;;;;;;0.20;0.20;;;;;;;20.37;38.52;103043.47;5114504;28;20075;-43
2022/01/28 09:47:31;;;;;;;0.20;0.20;;;;;;;20.35;38.77;103052.03;5099513;28;20509;-43
2022/01/28 09:49:58;;;;;;;0.20;0.20;;;;;;;20.35;38.59;103053.97;5112453;28;20138;-42
2022/01/28 09:52:23;;;;;;;0.20;0.20;;;;;;;20.33;38.32;103047.81;5099976;28;20688;-41
2022/01/28 09:54:49;;;;;;;0.20;0.20;;;;;;;20.30;38.60;103036.13;5114436;28;20036;-42
2022/01/28 09:57:20;;;;;;;0.20;0.20;;;;;;;20.32;38.50;103046.13;5115734;28;20055;-41
2022/01/28 09:59:46;;;;;;;0.20;0.20;;;;;;;20.32;38.70;103044.19;5091394;28;20044;-41
2022/01/28 10:02:12;;;;;;;0.20;0.20;;;;;;;20.30;38.56;103052.75;5106254;28;20078;-42
2022/01/28 10:04:38;;;;;;;0.20;0.20;;;;;;;20.30;38.61;103049.13;5089202;28;20043;-40
2022/01/28 10:07:13;;;;;;;0.38;0.30;;;;;;;20.26;38.00;103059.00;5110018;28;20059;-44
2022/01/28 10:09:54;;;;;;;0.20;0.20;;;;;;;20.40;37.97;103056.84;5110413;28;20036;-42
2022/01/28 10:12:26;;;;;;;0.30;0.30;;;;;;;20.38;38.07;103057.09;5089812;28;20493;-42
2022/01/28 10:15:02;;;;;;;0.20;0.20;;;;;;;20.35;38.17;103065.03;5109068;28;20071;-42
2022/01/28 10:17:52;;;;;;;0.20;0.20;;;;;;;20.34;38.19;103066.13;5111070;28;20086;-42
2022/01/28 10:20:19;;;;;;;0.20;0.20;;;;;;;20.32;38.36;103073.78;5087878;28;20490;-42
2022/01/28 10:22:58;;;;;;;0.20;0.20;;;;;;;20.32;38.47;103073.78;5091527;28;20485;-42
2022/01/28 10:25:26;;;;;;;0.20;0.20;;;;;;;20.44;38.47;103085.75;5094103;28;20047;-32
2022/01/28 10:27:58;;;;;;;0.20;0.20;;;;;;;20.42;37.87;103083.22;5108663;28;20523;-30
2022/01/28 10:30:23;;;;;;;0.20;0.20;;;;;;;20.40;38.24;103081.75;5109635;28;20381;-32
2022/01/28 10:33:14;;;;;;;0.20;0.20;;;;;;;20.37;38.25;103079.47;5108993;28;20558;-32
2022/01/28 10:35:51;;;;;;;0.20;0.20;;;;;;;20.36;38.34;103075.00;5095079;28;20491;-31
2022/01/28 10:38:35;;;;;;;0.10;0.10;;;;;;;20.39;38.04;103069.00;5085794;28;20510;-30
2022/01/28 10:41:11;;;;;;;0.20;0.20;;;;;;;20.45;37.93;103074.41;5090972;28;20131;-39
2022/01/28 10:43:54;;;;;;;0.20;0.20;;;;;;;20.67;38.04;103076.66;5076207;28;20494;-38
2022/01/28 10:49:03;;;;;;;0.20;0.20;;;;;;;20.62;38.36;103073.75;5172586;27;20213;-26
2022/01/28 10:51:49;;;;;;;0.20;0.20;;;;;;;20.57;38.58;103068.94;5163306;27;20043;-27
2022/01/28 10:54:21;;;;;;;0.20;0.20;;;;;;;20.56;38.79;103072.81;5148703;27;20503;-27
2022/01/28 10:56:57;;;;;;;0.20;0.20;;;;;;;20.54;38.60;103069.41;5141525;27;20082;-27
2022/01/28 10:59:28;;;;;;;0.20;0.20;;;;;;;20.53;38.48;103068.56;5147221;27;20043;-27
2022/01/28 11:01:54;;;;;;;0.20;0.20;;;;;;;20.52;38.69;103066.91;5161932;27;20077;-27
2022/01/28 11:04:21;;;;;;;0.20;0.20;;;;;;;20.53;38.55;103074.09;5159825;27;20053;-27
2022/01/28 11:06:48;;;;;;;0.20;0.20;;;;;;;20.52;38.87;103074.34;5135250;27;20070;-26
2022/01/28 11:09:16;;;;;;;0.20;0.20;;;;;;;20.52;38.46;103075.19;5156838;27;20075;-27
2022/01/28 11:11:42;;;;;;;0.20;0.20;;;;;;;20.53;38.71;103081.56;5138181;27;20039;-26
2022/01/28 11:14:08;;;;;;;0.20;0.20;;;;;;;20.52;38.80;103083.50;5158028;27;20078;-26
2022/01/28 11:16:34;;;;;;;0.20;0.20;;;;;;;20.51;38.54;103069.91;5155168;27;20217;-26
2022/01/28 11:19:01;;;;;;;0.20;0.20;;;;;;;20.53;38.79;103078.81;5156049;27;20484;-26
2022/01/28 11:21:40;;;;;;;0.20;0.20;;;;;;;20.53;38.90;103076.03;5148812;27;20078;-26
2022/01/28 11:24:12;;;;;;;0.20;0.20;;;;;;;20.52;38.56;103080.72;5154203;27;20074;-27
2022/01/28 11:27:14;;;;;;;0.20;0.20;;;;;;;20.53;38.73;103089.88;5153155;27;20659;-26
2022/01/28 11:29:40;;;;;;;0.20;0.20;;;;;;;20.53;38.74;103096.25;5138758;27;20393;-27
2022/01/28 11:32:15;;;;;;;0.20;0.20;;;;;;;20.53;38.63;103085.19;5154616;27;20119;-27
2022/01/28 11:34:59;;;;;;;0.20;0.20;;;;;;;20.52;38.62;103085.44;5157868;27;20375;-29
2022/01/28 11:37:28;;;;;;;0.20;0.20;;;;;;;20.54;38.58;103066.66;5155300;27;20074;-28
2022/01/28 11:39:54;;;;;;;0.20;0.20;;;;;;;20.52;38.58;103046.69;5155577;27;20318;-28
2022/01/28 11:42:27;;;;;;;0.20;0.20;;;;;;;20.53;38.70;103048.34;5159421;27;20123;-28
2022/01/28 11:44:57;;;;;;;0.20;0.20;;;;;;;20.52;38.92;103050.28;5157649;27;20074;-28
2022/01/28 11:50:16;;;;;;;0.20;0.20;;;;;;;20.52;38.64;103041.97;5163412;27;20728;-26
2022/01/28 11:52:45;;;;;;;0.20;0.20;;;;;;;20.51;38.62;103039.47;5116862;27;20042;-27
2022/01/28 11:58:12;;;;;;;0.20;0.20;;;;;;;20.50;38.56;103030.28;5167200;27;20201;-26
2022/01/28 12:03:23;;;;;;;0.20;0.20;;;;;;;20.49;38.56;103028.59;5163567;27;20218;-27
2022/01/28 12:05:52;;;;;;;0.20;0.20;;;;;;;20.50;38.98;103024.75;5126739;27;20478;-26
2022/01/28 12:08:18;;;;;;;;;;;;;;;20.47;38.84;103018.84;5148473;27;20125;-27
2022/01/28 12:10:45;;;;;;;0.20;0.20;;;;;;;20.46;38.92;103026.28;5148581;27;19975;-27
2022/01/28 12:13:15;;;;;;;0.20;0.20;;;;;;;20.47;38.94;103027.16;5146208;27;20112;-27
2022/01/28 12:18:56;;;;;;;0.20;0.20;;;;;;;20.45;38.93;103024.59;5163139;27;20113;-26
2022/01/28 12:21:28;;;;;;;0.20;0.20;;;;;;;20.43;38.94;103021.25;5127492;27;20095;-26
2022/01/28 12:24:25;;;;;;;0.20;0.20;;;;;;;20.41;38.78;103017.84;5122612;27;20454;-26
2022/01/28 12:27:08;;;;;;;0.20;0.20;;;;;;;20.41;38.93;103017.00;5127999;27;20070;-26
2022/01/28 12:29:41;;;;;;;0.20;0.20;;;;;;;20.41;38.68;103014.25;5108429;27;20039;-26
2022/01/28 12:32:07;;;;;;;0.20;0.20;;;;;;;20.38;38.96;103015.59;5124388;27;20078;-27
2022/01/28 12:34:33;;;;;;;0.20;0.20;;;;;;;20.39;38.99;103019.19;5145342;27;20043;-26
2022/01/28 12:36:59;;;;;;;0.20;0.20;;;;;;;20.37;38.85;103019.41;5126237;27;20054;-27
2022/01/28 12:39:38;;;;;;;0.20;0.20;;;;;;;20.38;38.98;103017.47;5145131;27;20051;-26
2022/01/28 12:42:11;;;;;;;0.20;0.20;;;;;;;20.37;39.08;103021.34;5142339;27;20477;-27
2022/01/28 12:44:39;;;;;;;0.20;0.20;;;;;;;20.36;39.10;103023.28;5126376;27;20047;-28
2022/01/28 12:47:09;;;;;;;0.22;0.22;;;;;;;20.35;38.89;103018.81;5125590;27;20506;-27
2022/01/28 12:49:36;;;;;;;0.20;0.20;;;;;;;20.38;38.74;103012.81;5142844;27;20039;-26
2022/01/28 12:52:04;;;;;;;0.20;0.20;;;;;;;20.40;38.63;103013.41;5121009;27;20095;-27
2022/01/28 12:54:32;;;;;;;0.20;0.20;;;;;;;20.39;38.56;103008.97;5125646;27;20129;-26
2022/01/28 12:56:58;;;;;;;0.20;0.20;;;;;;;20.36;38.88;102998.38;5109699;27;20404;-27
2022/01/28 12:59:23;;;;;;;0.20;0.20;;;;;;;20.37;38.56;102999.19;5145481;27;20035;-26